DLH2TT EDDF-EDDH
Flight info
| Callsign | DLH2TT |
|---|---|
| Flight time | 0h 49m |
| Altitude | 35000 |
| Route | MARUN9S MARUN Y150 TOLGI DCT SAS/N0412F340 P605 NOLGO NOLGO3S |
| Aircraft | A20N/M-SDE2E3FGHIRWXY/LB1 |
Departure
| Time | 2026-05-05 05:35 |
|---|---|
| Airport | Frankfurt Main Airport (EDDF) |
Arrival
| Time | 2026-05-05 06:25 |
|---|---|
| Airport | Hamburg Helmut Schmidt Airport (EDDH) |
| Time | Latitude | Longitude | Altitude | Speed | Heading |
|---|---|---|---|---|---|
| 2026-05-05 05:03 | 50.04466 | 8.56485 | 356 ft | 0 kts | 159° |
| 2026-05-05 05:23 | 50.04488 | 8.56472 | 363 ft | 4 kts | 160° |
| 2026-05-05 05:24 | 50.04514 | 8.56458 | 362 ft | 4 kts | 161° |
| 2026-05-05 05:24 | 50.04534 | 8.56448 | 357 ft | 4 kts | 170° |
| 2026-05-05 05:24 | 50.04560 | 8.56448 | 360 ft | 4 kts | 198° |
| 2026-05-05 05:24 | 50.04570 | 8.56454 | 360 ft | 0 kts | 204° |
| 2026-05-05 05:27 | 50.04557 | 8.56445 | 360 ft | 5 kts | 204° |
| 2026-05-05 05:27 | 50.04489 | 8.56271 | 355 ft | 8 kts | 250° |
| 2026-05-05 05:28 | 50.04466 | 8.56172 | 363 ft | 12 kts | 249° |
| 2026-05-05 05:28 | 50.04434 | 8.56038 | 360 ft | 14 kts | 250° |
| 2026-05-05 05:28 | 50.04382 | 8.55922 | 360 ft | 11 kts | 201° |
| 2026-05-05 05:28 | 50.04329 | 8.55936 | 356 ft | 14 kts | 161° |
| 2026-05-05 05:29 | 50.04241 | 8.55930 | 358 ft | 13 kts | 234° |
| 2026-05-05 05:29 | 50.04202 | 8.55775 | 352 ft | 17 kts | 250° |
| 2026-05-05 05:29 | 50.04155 | 8.55589 | 356 ft | 20 kts | 251° |
| 2026-05-05 05:29 | 50.04105 | 8.55374 | 357 ft | 22 kts | 250° |
| 2026-05-05 05:30 | 50.04051 | 8.55153 | 359 ft | 22 kts | 249° |
| 2026-05-05 05:30 | 50.03998 | 8.54933 | 357 ft | 22 kts | 250° |
| 2026-05-05 05:30 | 50.03949 | 8.54723 | 356 ft | 20 kts | 249° |
| 2026-05-05 05:30 | 50.03910 | 8.54563 | 350 ft | 13 kts | 249° |
| 2026-05-05 05:31 | 50.03872 | 8.54408 | 350 ft | 17 kts | 249° |
| 2026-05-05 05:31 | 50.03811 | 8.54259 | 345 ft | 16 kts | 238° |
| 2026-05-05 05:31 | 50.03766 | 8.54081 | 348 ft | 19 kts | 250° |
| 2026-05-05 05:31 | 50.03716 | 8.53872 | 349 ft | 22 kts | 248° |
| 2026-05-05 05:32 | 50.03673 | 8.53692 | 349 ft | 14 kts | 249° |
| 2026-05-05 05:32 | 50.03633 | 8.53533 | 340 ft | 18 kts | 248° |
| 2026-05-05 05:32 | 50.03587 | 8.53340 | 335 ft | 20 kts | 250° |
| 2026-05-05 05:32 | 50.03536 | 8.53129 | 337 ft | 20 kts | 249° |
| 2026-05-05 05:33 | 50.03482 | 8.52909 | 336 ft | 23 kts | 249° |
| 2026-05-05 05:33 | 50.03425 | 8.52694 | 333 ft | 17 kts | 249° |
| 2026-05-05 05:33 | 50.03387 | 8.52596 | 332 ft | 9 kts | 201° |
| 2026-05-05 05:33 | 50.03357 | 8.52593 | 333 ft | 0 kts | 180° |
| 2026-05-05 05:34 | 50.03355 | 8.52593 | 334 ft | 4 kts | 180° |
| 2026-05-05 05:34 | 50.03111 | 8.52595 | 335 ft | 71 kts | 179° |
| 2026-05-05 05:34 | 50.02401 | 8.52602 | 333 ft | 129 kts | 180° |
| 2026-05-05 05:35 | 50.01353 | 8.52610 | 412 ft | 165 kts | 179° |
| 2026-05-05 05:35 | 50.00207 | 8.52641 | 934 ft | 166 kts | 178° |
| 2026-05-05 05:35 | 49.99027 | 8.52699 | 1472 ft | 173 kts | 184° |
| 2026-05-05 05:35 | 49.97845 | 8.52278 | 2044 ft | 177 kts | 203° |
| 2026-05-05 05:36 | 49.96830 | 8.51185 | 2619 ft | 178 kts | 223° |
| 2026-05-05 05:36 | 49.95943 | 8.49842 | 3271 ft | 180 kts | 225° |
| 2026-05-05 05:36 | 49.95033 | 8.48482 | 3931 ft | 185 kts | 222° |
| 2026-05-05 05:36 | 49.94081 | 8.47100 | 4658 ft | 190 kts | 225° |
| 2026-05-05 05:37 | 49.93162 | 8.45611 | 5470 ft | 192 kts | 226° |
| 2026-05-05 05:37 | 49.92227 | 8.44116 | 6307 ft | 194 kts | 225° |
| 2026-05-05 05:37 | 49.91266 | 8.42578 | 6997 ft | 202 kts | 225° |
| 2026-05-05 05:37 | 49.90249 | 8.41020 | 7675 ft | 212 kts | 224° |
| 2026-05-05 05:38 | 49.89125 | 8.39376 | 8202 ft | 233 kts | 223° |
| 2026-05-05 05:38 | 49.88003 | 8.37411 | 8708 ft | 255 kts | 239° |
| 2026-05-05 05:38 | 49.87428 | 8.34760 | 9280 ft | 274 kts | 264° |
| 2026-05-05 05:38 | 49.87674 | 8.31818 | 10166 ft | 282 kts | 288° |
| 2026-05-05 05:39 | 49.88638 | 8.29041 | 10637 ft | 307 kts | 300° |
| 2026-05-05 05:39 | 49.89846 | 8.26151 | 10970 ft | 330 kts | 301° |
| 2026-05-05 05:39 | 49.91134 | 8.23134 | 11650 ft | 339 kts | 303° |
| 2026-05-05 05:39 | 49.92803 | 8.20497 | 12498 ft | 349 kts | 323° |
| 2026-05-05 05:40 | 49.94983 | 8.18933 | 13314 ft | 359 kts | 344° |
| 2026-05-05 05:40 | 49.97494 | 8.18650 | 14063 ft | 368 kts | 5° |
| 2026-05-05 05:40 | 49.99958 | 8.19698 | 14769 ft | 375 kts | 21° |
| 2026-05-05 05:40 | 50.02364 | 8.21401 | 15477 ft | 381 kts | 25° |
| 2026-05-05 05:41 | 50.04717 | 8.23204 | 16180 ft | 385 kts | 25° |
| 2026-05-05 05:41 | 50.07191 | 8.25067 | 16911 ft | 390 kts | 25° |
| 2026-05-05 05:41 | 50.09665 | 8.26865 | 17611 ft | 395 kts | 24° |
| 2026-05-05 05:41 | 50.12177 | 8.28647 | 18306 ft | 399 kts | 23° |
| 2026-05-05 05:42 | 50.14720 | 8.30430 | 18917 ft | 403 kts | 23° |
| 2026-05-05 05:42 | 50.17291 | 8.32225 | 19552 ft | 406 kts | 23° |
| 2026-05-05 05:42 | 50.19883 | 8.34037 | 20168 ft | 410 kts | 22° |
| 2026-05-05 05:42 | 50.22502 | 8.35870 | 20780 ft | 414 kts | 22° |
| 2026-05-05 05:43 | 50.25129 | 8.37713 | 21386 ft | 418 kts | 22° |
| 2026-05-05 05:43 | 50.27800 | 8.39591 | 21989 ft | 421 kts | 22° |
| 2026-05-05 05:43 | 50.30523 | 8.41296 | 22591 ft | 424 kts | 17° |
| 2026-05-05 05:43 | 50.33327 | 8.42805 | 23186 ft | 427 kts | 17° |
| 2026-05-05 05:44 | 50.36125 | 8.44324 | 23724 ft | 431 kts | 17° |
| 2026-05-05 05:44 | 50.38990 | 8.45887 | 24229 ft | 434 kts | 17° |
| 2026-05-05 05:44 | 50.41854 | 8.47454 | 24708 ft | 437 kts | 17° |
| 2026-05-05 05:44 | 50.44737 | 8.49032 | 25193 ft | 441 kts | 17° |
| 2026-05-05 05:45 | 50.47639 | 8.50623 | 25656 ft | 444 kts | 17° |
| 2026-05-05 05:45 | 50.50588 | 8.52135 | 26104 ft | 447 kts | 14° |
| 2026-05-05 05:45 | 50.53572 | 8.53541 | 26538 ft | 450 kts | 14° |
| 2026-05-05 05:45 | 50.56584 | 8.54938 | 26984 ft | 453 kts | 14° |
| 2026-05-05 05:46 | 50.59613 | 8.56357 | 27401 ft | 456 kts | 14° |
| 2026-05-05 05:46 | 50.62629 | 8.57787 | 27797 ft | 460 kts | 14° |
| 2026-05-05 05:46 | 50.65737 | 8.59275 | 28206 ft | 463 kts | 14° |
| 2026-05-05 05:46 | 50.68784 | 8.60742 | 28589 ft | 466 kts | 13° |
| 2026-05-05 05:47 | 50.71895 | 8.62244 | 28957 ft | 469 kts | 13° |
| 2026-05-05 05:47 | 50.75021 | 8.63757 | 29327 ft | 471 kts | 13° |
| 2026-05-05 05:47 | 50.78160 | 8.65310 | 29685 ft | 476 kts | 16° |
| 2026-05-05 05:47 | 50.81173 | 8.67578 | 30013 ft | 484 kts | 29° |
| 2026-05-05 05:48 | 50.83874 | 8.70807 | 30313 ft | 491 kts | 41° |
| 2026-05-05 05:48 | 50.86164 | 8.74845 | 30633 ft | 495 kts | 51° |
| 2026-05-05 05:48 | 50.88215 | 8.79243 | 30945 ft | 498 kts | 53° |
| 2026-05-05 05:48 | 50.90226 | 8.83714 | 31338 ft | 498 kts | 53° |
| 2026-05-05 05:49 | 50.92260 | 8.88175 | 31767 ft | 498 kts | 53° |
| 2026-05-05 05:49 | 50.94312 | 8.92579 | 32186 ft | 497 kts | 52° |
| 2026-05-05 05:49 | 50.96380 | 8.96964 | 32604 ft | 496 kts | 52° |
| 2026-05-05 05:49 | 50.98453 | 9.01332 | 33020 ft | 495 kts | 52° |
| 2026-05-05 05:50 | 51.00526 | 9.05694 | 33439 ft | 494 kts | 52° |
| 2026-05-05 05:50 | 51.02593 | 9.10049 | 33850 ft | 494 kts | 52° |
| 2026-05-05 05:50 | 51.04659 | 9.14411 | 34173 ft | 493 kts | 52° |
| 2026-05-05 05:50 | 51.06714 | 9.18759 | 34506 ft | 492 kts | 52° |
| 2026-05-05 05:51 | 51.08861 | 9.22974 | 34808 ft | 490 kts | 44° |
| 2026-05-05 05:51 | 51.11423 | 9.26492 | 34907 ft | 485 kts | 32° |
| 2026-05-05 05:51 | 51.14350 | 9.29109 | 34914 ft | 480 kts | 19° |
| 2026-05-05 05:51 | 51.17501 | 9.30700 | 34915 ft | 474 kts | 8° |
| 2026-05-05 05:52 | 51.23952 | 9.32735 | 34912 ft | 473 kts | 7° |
| 2026-05-05 05:52 | 51.30408 | 9.34840 | 34911 ft | 474 kts | 8° |
| 2026-05-05 05:53 | 51.36854 | 9.37062 | 34916 ft | 474 kts | 8° |
| 2026-05-05 05:53 | 51.43249 | 9.39298 | 34911 ft | 474 kts | 8° |
| 2026-05-05 05:54 | 51.49698 | 9.41558 | 34908 ft | 474 kts | 8° |
| 2026-05-05 05:54 | 51.56113 | 9.43811 | 34909 ft | 475 kts | 8° |
| 2026-05-05 05:55 | 51.62569 | 9.46084 | 34910 ft | 475 kts | 8° |
| 2026-05-05 05:55 | 51.69035 | 9.48367 | 34904 ft | 476 kts | 8° |
| 2026-05-05 05:56 | 51.75505 | 9.50657 | 34901 ft | 477 kts | 9° |
| 2026-05-05 05:56 | 51.81960 | 9.53199 | 34902 ft | 480 kts | 15° |
| 2026-05-05 05:57 | 51.88086 | 9.57598 | 34900 ft | 484 kts | 25° |
| 2026-05-05 05:57 | 51.94097 | 9.62559 | 34897 ft | 484 kts | 24° |
| 2026-05-05 05:58 | 52.00104 | 9.67515 | 34892 ft | 485 kts | 24° |
| 2026-05-05 05:58 | 52.06077 | 9.72483 | 34898 ft | 486 kts | 25° |
| 2026-05-05 05:59 | 52.12108 | 9.77521 | 34907 ft | 488 kts | 25° |
| 2026-05-05 05:59 | 52.18146 | 9.82582 | 34912 ft | 488 kts | 25° |
| 2026-05-05 06:00 | 52.24202 | 9.87574 | 34909 ft | 487 kts | 20° |
| 2026-05-05 06:00 | 52.30625 | 9.90816 | 34918 ft | 483 kts | 11° |
| 2026-05-05 06:01 | 52.37105 | 9.93675 | 34921 ft | 482 kts | 11° |
| 2026-05-05 06:01 | 52.43578 | 9.96546 | 34911 ft | 482 kts | 11° |
| 2026-05-05 06:02 | 52.50046 | 9.99412 | 34918 ft | 481 kts | 11° |
| 2026-05-05 06:02 | 52.56509 | 10.02280 | 34912 ft | 481 kts | 11° |
| 2026-05-05 06:03 | 52.62961 | 10.05160 | 34907 ft | 480 kts | 12° |
| 2026-05-05 06:03 | 52.69403 | 10.08045 | 34919 ft | 480 kts | 12° |
| 2026-05-05 06:04 | 52.75795 | 10.10871 | 34908 ft | 477 kts | 8° |
| 2026-05-05 06:04 | 52.79049 | 10.11715 | 34803 ft | 471 kts | 1° |
| 2026-05-05 06:04 | 52.82318 | 10.11920 | 34430 ft | 470 kts | 356° |
| 2026-05-05 06:05 | 52.85606 | 10.12008 | 33855 ft | 474 kts | 356° |
| 2026-05-05 06:05 | 52.88903 | 10.12119 | 33173 ft | 474 kts | 357° |
| 2026-05-05 06:05 | 52.92192 | 10.12234 | 32499 ft | 473 kts | 357° |
| 2026-05-05 06:05 | 52.95478 | 10.12349 | 31842 ft | 471 kts | 357° |
| 2026-05-05 06:06 | 52.98758 | 10.12460 | 31200 ft | 472 kts | 358° |
| 2026-05-05 06:06 | 53.02044 | 10.12569 | 30579 ft | 474 kts | 358° |
| 2026-05-05 06:06 | 53.05334 | 10.12678 | 29959 ft | 473 kts | 358° |
| 2026-05-05 06:06 | 53.08616 | 10.12788 | 29251 ft | 470 kts | 358° |
| 2026-05-05 06:07 | 53.11874 | 10.12898 | 28551 ft | 466 kts | 358° |
| 2026-05-05 06:07 | 53.15105 | 10.13007 | 27871 ft | 462 kts | 358° |
| 2026-05-05 06:07 | 53.18297 | 10.13115 | 27212 ft | 457 kts | 358° |
| 2026-05-05 06:07 | 53.21465 | 10.13221 | 26566 ft | 453 kts | 358° |
| 2026-05-05 06:08 | 53.24600 | 10.13327 | 25934 ft | 449 kts | 359° |
| 2026-05-05 06:08 | 53.27693 | 10.13431 | 25311 ft | 439 kts | 358° |
| 2026-05-05 06:08 | 53.30709 | 10.13535 | 24706 ft | 428 kts | 358° |
| 2026-05-05 06:08 | 53.33655 | 10.13636 | 24117 ft | 422 kts | 358° |
| 2026-05-05 06:09 | 53.36589 | 10.13733 | 23540 ft | 422 kts | 358° |
| 2026-05-05 06:09 | 53.39513 | 10.13808 | 22854 ft | 418 kts | 356° |
| 2026-05-05 06:09 | 53.42389 | 10.13492 | 22195 ft | 413 kts | 353° |
| 2026-05-05 06:09 | 53.45254 | 10.13114 | 21547 ft | 413 kts | 353° |
| 2026-05-05 06:10 | 53.48113 | 10.12751 | 20897 ft | 409 kts | 353° |
| 2026-05-05 06:10 | 53.50913 | 10.12402 | 20268 ft | 399 kts | 353° |
| 2026-05-05 06:10 | 53.53647 | 10.12060 | 19656 ft | 389 kts | 353° |
| 2026-05-05 06:10 | 53.56326 | 10.12111 | 19050 ft | 383 kts | 8° |
| 2026-05-05 06:11 | 53.58815 | 10.13494 | 18468 ft | 377 kts | 28° |
| 2026-05-05 06:11 | 53.60870 | 10.16142 | 17815 ft | 370 kts | 48° |
| 2026-05-05 06:11 | 53.62512 | 10.19423 | 17161 ft | 364 kts | 51° |
| 2026-05-05 06:11 | 53.64085 | 10.22740 | 16501 ft | 358 kts | 51° |
| 2026-05-05 06:12 | 53.65616 | 10.25951 | 15869 ft | 353 kts | 51° |
| 2026-05-05 06:12 | 53.67154 | 10.29127 | 15242 ft | 348 kts | 50° |
| 2026-05-05 06:12 | 53.68684 | 10.32252 | 14624 ft | 343 kts | 50° |
| 2026-05-05 06:12 | 53.70193 | 10.35312 | 14115 ft | 336 kts | 49° |
| 2026-05-05 06:13 | 53.71677 | 10.38315 | 13620 ft | 330 kts | 50° |
| 2026-05-05 06:13 | 53.73142 | 10.41281 | 13092 ft | 327 kts | 49° |
| 2026-05-05 06:13 | 53.74590 | 10.44218 | 12561 ft | 324 kts | 50° |
| 2026-05-05 06:13 | 53.76016 | 10.47116 | 12054 ft | 320 kts | 50° |
| 2026-05-05 06:14 | 53.77432 | 10.49996 | 11529 ft | 317 kts | 50° |
| 2026-05-05 06:14 | 53.78827 | 10.52839 | 11048 ft | 312 kts | 50° |
| 2026-05-05 06:14 | 53.80190 | 10.55619 | 10744 ft | 300 kts | 50° |
| 2026-05-05 06:14 | 53.81492 | 10.58285 | 10480 ft | 287 kts | 49° |
| 2026-05-05 06:15 | 53.82760 | 10.60827 | 10078 ft | 280 kts | 49° |
| 2026-05-05 06:15 | 53.84014 | 10.63339 | 9580 ft | 277 kts | 49° |
| 2026-05-05 06:15 | 53.85402 | 10.65546 | 9045 ft | 272 kts | 28° |
| 2026-05-05 06:15 | 53.87164 | 10.66485 | 8532 ft | 264 kts | 360° |
| 2026-05-05 06:16 | 53.88928 | 10.65916 | 8021 ft | 256 kts | 330° |
| 2026-05-05 06:16 | 53.90251 | 10.64020 | 7530 ft | 251 kts | 301° |
| 2026-05-05 06:16 | 53.91020 | 10.61362 | 7034 ft | 253 kts | 282° |
| 2026-05-05 06:16 | 53.91019 | 10.58414 | 6552 ft | 253 kts | 253° |
| 2026-05-05 06:17 | 53.90605 | 10.56558 | 6225 ft | 256 kts | 245° |
| 2026-05-05 06:17 | 53.89857 | 10.53802 | 5698 ft | 258 kts | 241° |
| 2026-05-05 06:17 | 53.88913 | 10.51269 | 5289 ft | 251 kts | 233° |
| 2026-05-05 06:17 | 53.87857 | 10.48984 | 4932 ft | 242 kts | 230° |
| 2026-05-05 06:18 | 53.86801 | 10.46863 | 4739 ft | 230 kts | 230° |
| 2026-05-05 06:18 | 53.85465 | 10.44172 | 4489 ft | 220 kts | 230° |
| 2026-05-05 06:18 | 53.84793 | 10.42817 | 4408 ft | 225 kts | 230° |
| 2026-05-05 06:18 | 53.83770 | 10.40756 | 4250 ft | 231 kts | 230° |
| 2026-05-05 06:19 | 53.82741 | 10.38683 | 4099 ft | 228 kts | 230° |
| 2026-05-05 06:19 | 53.81722 | 10.36627 | 3981 ft | 228 kts | 230° |
| 2026-05-05 06:19 | 53.80704 | 10.34576 | 3978 ft | 228 kts | 230° |
| 2026-05-05 06:19 | 53.79683 | 10.32515 | 3976 ft | 229 kts | 230° |
| 2026-05-05 06:20 | 53.78659 | 10.30449 | 3973 ft | 229 kts | 230° |
| 2026-05-05 06:20 | 53.77638 | 10.28389 | 3989 ft | 229 kts | 230° |
| 2026-05-05 06:20 | 53.76620 | 10.26333 | 3988 ft | 229 kts | 230° |
| 2026-05-05 06:20 | 53.75607 | 10.24286 | 3837 ft | 231 kts | 230° |
| 2026-05-05 06:21 | 53.74579 | 10.22209 | 3521 ft | 229 kts | 230° |
| 2026-05-05 06:21 | 53.73580 | 10.20141 | 3204 ft | 225 kts | 235° |
| 2026-05-05 06:21 | 53.72581 | 10.18126 | 2903 ft | 221 kts | 233° |
| 2026-05-05 06:21 | 53.71609 | 10.16167 | 2596 ft | 215 kts | 232° |
| 2026-05-05 06:22 | 53.70662 | 10.14261 | 2309 ft | 208 kts | 232° |
| 2026-05-05 06:22 | 53.69751 | 10.12426 | 2086 ft | 199 kts | 232° |
| 2026-05-05 06:22 | 53.68888 | 10.10682 | 1789 ft | 187 kts | 232° |
| 2026-05-05 06:22 | 53.68085 | 10.09063 | 1527 ft | 172 kts | 232° |
| 2026-05-05 06:23 | 53.67354 | 10.07584 | 1303 ft | 157 kts | 232° |
| 2026-05-05 06:23 | 53.66688 | 10.06240 | 1085 ft | 144 kts | 231° |
| 2026-05-05 06:23 | 53.66061 | 10.04990 | 870 ft | 135 kts | 235° |
| 2026-05-05 06:23 | 53.65471 | 10.03740 | 683 ft | 139 kts | 239° |
| 2026-05-05 06:24 | 53.64837 | 10.02541 | 502 ft | 137 kts | 231° |
| 2026-05-05 06:24 | 53.64229 | 10.01342 | 295 ft | 131 kts | 238° |
| 2026-05-05 06:24 | 53.63661 | 10.00107 | 113 ft | 136 kts | 235° |
| 2026-05-05 06:24 | 53.63110 | 9.98955 | 46 ft | 103 kts | 227° |
| 2026-05-05 06:25 | 53.62789 | 9.98329 | 43 ft | 47 kts | 233° |
| 2026-05-05 06:25 | 53.62594 | 9.97928 | 41 ft | 36 kts | 230° |
| 2026-05-05 06:25 | 53.62474 | 9.97778 | 40 ft | 17 kts | 164° |
| 2026-05-05 06:25 | 53.62428 | 9.97899 | 45 ft | 11 kts | 87° |
| 2026-05-05 06:26 | 53.62446 | 9.98029 | 46 ft | 12 kts | 70° |
| 2026-05-05 06:26 | 53.62499 | 9.98165 | 46 ft | 16 kts | 51° |
| 2026-05-05 06:26 | 53.62577 | 9.98322 | 46 ft | 19 kts | 50° |
| 2026-05-05 06:26 | 53.62665 | 9.98506 | 46 ft | 21 kts | 53° |
| 2026-05-05 06:27 | 53.62762 | 9.98709 | 46 ft | 23 kts | 50° |
| 2026-05-05 06:27 | 53.62973 | 9.99129 | 46 ft | 23 kts | 50° |
| 2026-05-05 06:27 | 53.63068 | 9.99318 | 46 ft | 21 kts | 53° |
| 2026-05-05 06:28 | 53.63148 | 9.99525 | 43 ft | 22 kts | 53° |
| 2026-05-05 06:28 | 53.63245 | 9.99713 | 47 ft | 21 kts | 40° |
| 2026-05-05 06:28 | 53.63340 | 9.99893 | 48 ft | 20 kts | 52° |
| 2026-05-05 06:28 | 53.63422 | 10.00057 | 48 ft | 16 kts | 56° |
| 2026-05-05 06:29 | 53.63411 | 10.00177 | 48 ft | 9 kts | 129° |
| 2026-05-05 06:29 | 53.63354 | 10.00230 | 45 ft | 10 kts | 173° |
| 2026-05-05 06:29 | 53.63282 | 10.00240 | 48 ft | 11 kts | 177° |
| 2026-05-05 06:29 | 53.63201 | 10.00244 | 48 ft | 12 kts | 179° |
| 2026-05-05 06:30 | 53.63124 | 10.00252 | 48 ft | 8 kts | 174° |
| 2026-05-05 06:30 | 53.63075 | 10.00273 | 47 ft | 2 kts | 126° |
| 2026-05-05 06:30 | 53.63075 | 10.00304 | 48 ft | 4 kts | 90° |
| 2026-05-05 06:30 | 53.63074 | 10.00341 | 48 ft | 4 kts | 92° |
| 2026-05-05 06:31 | 53.63074 | 10.00365 | 48 ft | 2 kts | 92° |
| 2026-05-05 06:31 | 53.63074 | 10.00376 | 48 ft | 0 kts | 92° |